sensor_id;sensor_type;location;lat;lon;timestamp;pressure;altitude;pressure_sealevel;temperature;humidity
52927;BME280;40783;49.710;8.842;2023-03-26T00:00:59;98492.44;;;8.44;100.00
52927;BME280;40783;49.710;8.842;2023-03-26T00:03:24;98497.59;;;8.46;100.00
52927;BME280;40783;49.710;8.842;2023-03-26T00:05:59;98505.06;;;8.42;100.00
52927;BME280;40783;49.710;8.842;2023-03-26T00:08:27;98495.41;;;8.41;100.00
52927;BME280;40783;49.710;8.842;2023-03-26T00:10:54;98497.09;;;8.42;100.00
52927;BME280;40783;49.710;8.842;2023-03-26T00:13:19;98491.75;;;8.42;100.00
52927;BME280;40783;49.710;8.842;2023-03-26T00:15:47;98491.16;;;8.22;100.00
52927;BME280;40783;49.710;8.842;2023-03-26T00:18:12;98492.13;;;8.13;100.00
52927;BME280;40783;49.710;8.842;2023-03-26T00:20:40;98498.53;;;8.02;100.00
52927;BME280;40783;49.710;8.842;2023-03-26T00:23:05;98501.31;;;7.92;100.00
52927;BME280;40783;49.710;8.842;2023-03-26T00:25:32;98494.88;;;7.95;100.00
52927;BME280;40783;49.710;8.842;2023-03-26T00:28:02;98492.78;;;7.80;100.00
52927;BME280;40783;49.710;8.842;2023-03-26T00:30:27;98492.34;;;7.67;100.00
52927;BME280;40783;49.710;8.842;2023-03-26T00:32:53;98487.38;;;7.72;100.00
52927;BME280;40783;49.710;8.842;2023-03-26T00:35:18;98501.31;;;7.66;100.00
52927;BME280;40783;49.710;8.842;2023-03-26T00:37:43;98503.53;;;7.52;100.00
52927;BME280;40783;49.710;8.842;2023-03-26T00:40:10;98498.91;;;7.54;100.00
52927;BME280;40783;49.710;8.842;2023-03-26T00:42:40;98492.28;;;7.58;100.00
52927;BME280;40783;49.710;8.842;2023-03-26T00:45:07;98507.34;;;7.50;100.00
52927;BME280;40783;49.710;8.842;2023-03-26T00:47:36;98496.91;;;7.56;100.00
52927;BME280;40783;49.710;8.842;2023-03-26T00:50:01;98498.72;;;7.30;100.00
52927;BME280;40783;49.710;8.842;2023-03-26T00:52:28;98499.50;;;7.48;100.00
52927;BME280;40783;49.710;8.842;2023-03-26T00:54:53;98498.91;;;7.54;100.00
52927;BME280;40783;49.710;8.842;2023-03-26T00:57:19;98488.56;;;7.51;100.00
52927;BME280;40783;49.710;8.842;2023-03-26T00:59:45;98489.81;;;7.39;100.00
52927;BME280;40783;49.710;8.842;2023-03-26T01:02:12;98495.88;;;7.49;100.00
52927;BME280;40783;49.710;8.842;2023-03-26T01:04:43;98487.19;;;7.47;100.00
52927;BME280;40783;49.710;8.842;2023-03-26T01:07:09;98481.00;;;7.38;100.00
52927;BME280;40783;49.710;8.842;2023-03-26T01:09:36;98483.16;;;7.35;100.00
52927;BME280;40783;49.710;8.842;2023-03-26T01:12:08;98477.81;;;7.35;100.00
52927;BME280;40783;49.710;8.842;2023-03-26T01:14:34;98473.31;;;7.35;100.00
52927;BME280;40783;49.710;8.842;2023-03-26T01:17:00;98472.19;;;7.38;100.00
52927;BME280;40783;49.710;8.842;2023-03-26T01:19:28;98465.53;;;7.42;100.00
52927;BME280;40783;49.710;8.842;2023-03-26T01:21:55;98462.47;;;7.28;100.00
52927;BME280;40783;49.710;8.842;2023-03-26T01:24:23;98460.22;;;7.42;100.00
52927;BME280;40783;49.710;8.842;2023-03-26T01:32:33;98452.25;;;7.42;100.00
52927;BME280;40783;49.710;8.842;2023-03-26T01:38:02;98434.00;;;7.47;100.00
52927;BME280;40783;49.710;8.842;2023-03-26T01:40:46;98435.97;;;7.45;100.00
52927;BME280;40783;49.710;8.842;2023-03-26T01:43:16;98420.66;;;7.39;100.00
52927;BME280;40783;49.710;8.842;2023-03-26T01:45:47;98422.34;;;7.40;100.00
52927;BME280;40783;49.710;8.842;2023-03-26T01:48:13;98420.31;;;7.42;100.00
52927;BME280;40783;49.710;8.842;2023-03-26T01:50:38;98416.41;;;7.28;100.00
52927;BME280;40783;49.710;8.842;2023-03-26T01:53:06;98410.66;;;7.33;100.00
52927;BME280;40783;49.710;8.842;2023-03-26T01:55:41;98427.66;;;7.40;100.00
52927;BME280;40783;49.710;8.842;2023-03-26T01:58:23;98417.84;;;7.40;100.00
52927;BME280;40783;49.710;8.842;2023-03-26T02:00:58;98420.06;;;7.53;100.00
52927;BME280;40783;49.710;8.842;2023-03-26T02:03:26;98404.84;;;7.64;100.00
52927;BME280;40783;49.710;8.842;2023-03-26T02:06:00;98411.50;;;7.68;100.00
52927;BME280;40783;49.710;8.842;2023-03-26T02:10:59;98392.56;;;7.71;100.00
52927;BME280;40783;49.710;8.842;2023-03-26T02:13:28;98383.50;;;7.55;100.00
52927;BME280;40783;49.710;8.842;2023-03-26T02:15:56;98389.13;;;7.52;100.00
52927;BME280;40783;49.710;8.842;2023-03-26T02:18:22;98397.78;;;7.54;100.00
52927;BME280;40783;49.710;8.842;2023-03-26T02:20:50;98389.88;;;7.63;100.00
52927;BME280;40783;49.710;8.842;2023-03-26T02:23:19;98371.28;;;7.71;100.00
52927;BME280;40783;49.710;8.842;2023-03-26T02:25:45;98372.22;;;7.62;100.00
52927;BME280;40783;49.710;8.842;2023-03-26T02:28:10;98361.91;;;7.58;100.00
52927;BME280;40783;49.710;8.842;2023-03-26T02:30:35;98353.16;;;7.66;100.00
52927;BME280;40783;49.710;8.842;2023-03-26T02:33:03;98347.59;;;7.60;100.00
52927;BME280;40783;49.710;8.842;2023-03-26T02:35:29;98347.91;;;7.56;100.00
52927;BME280;40783;49.710;8.842;2023-03-26T02:37:54;98352.50;;;7.46;100.00
52927;BME280;40783;49.710;8.842;2023-03-26T02:40:19;98352.56;;;7.54;100.00
52927;BME280;40783;49.710;8.842;2023-03-26T02:42:49;98354.28;;;7.64;100.00
52927;BME280;40783;49.710;8.842;2023-03-26T02:45:14;98344.81;;;7.61;100.00
52927;BME280;40783;49.710;8.842;2023-03-26T02:47:42;98338.50;;;7.70;100.00
52927;BME280;40783;49.710;8.842;2023-03-26T02:50:07;98338.00;;;7.67;100.00
52927;BME280;40783;49.710;8.842;2023-03-26T02:52:35;98333.00;;;7.64;100.00
52927;BME280;40783;49.710;8.842;2023-03-26T02:55:01;98333.66;;;7.66;100.00
52927;BME280;40783;49.710;8.842;2023-03-26T02:57:26;98328.00;;;7.61;100.00
52927;BME280;40783;49.710;8.842;2023-03-26T02:59:51;98329.66;;;7.62;100.00
52927;BME280;40783;49.710;8.842;2023-03-26T03:02:16;98327.03;;;7.70;100.00
52927;BME280;40783;49.710;8.842;2023-03-26T03:04:42;98311.09;;;7.78;100.00
52927;BME280;40783;49.710;8.842;2023-03-26T03:07:09;98317.91;;;7.81;100.00
52927;BME280;40783;49.710;8.842;2023-03-26T03:09:39;98308.13;;;7.81;100.00
52927;BME280;40783;49.710;8.842;2023-03-26T03:12:04;98293.50;;;7.85;100.00
52927;BME280;40783;49.710;8.842;2023-03-26T03:14:29;98296.16;;;7.85;100.00
52927;BME280;40783;49.710;8.842;2023-03-26T03:16:55;98290.16;;;7.83;100.00
52927;BME280;40783;49.710;8.842;2023-03-26T03:19:21;98293.81;;;7.82;100.00
52927;BME280;40783;49.710;8.842;2023-03-26T03:21:46;98287.00;;;7.88;100.00
52927;BME280;40783;49.710;8.842;2023-03-26T03:24:12;98293.16;;;7.89;100.00
52927;BME280;40783;49.710;8.842;2023-03-26T03:26:38;98295.66;;;7.90;100.00
52927;BME280;40783;49.710;8.842;2023-03-26T03:29:06;98287.53;;;7.92;100.00
52927;BME280;40783;49.710;8.842;2023-03-26T03:31:31;98284.84;;;7.92;100.00
52927;BME280;40783;49.710;8.842;2023-03-26T03:33:56;98285.84;;;7.91;100.00
52927;BME280;40783;49.710;8.842;2023-03-26T03:36:22;98274.69;;;7.95;100.00
52927;BME280;40783;49.710;8.842;2023-03-26T03:38:47;98267.88;;;7.93;100.00
52927;BME280;40783;49.710;8.842;2023-03-26T03:41:12;98272.53;;;7.82;100.00
52927;BME280;40783;49.710;8.842;2023-03-26T03:43:37;98258.84;;;7.77;100.00
52927;BME280;40783;49.710;8.842;2023-03-26T03:46:03;98259.53;;;7.79;100.00
52927;BME280;40783;49.710;8.842;2023-03-26T03:48:28;98256.03;;;7.79;100.00
52927;BME280;40783;49.710;8.842;2023-03-26T03:50:57;98251.56;;;7.79;100.00
52927;BME280;40783;49.710;8.842;2023-03-26T03:53:22;98256.22;;;7.85;100.00
52927;BME280;40783;49.710;8.842;2023-03-26T03:55:56;98259.56;;;7.87;100.00
52927;BME280;40783;49.710;8.842;2023-03-26T03:58:26;98251.72;;;7.86;100.00
52927;BME280;40783;49.710;8.842;2023-03-26T04:00:52;98252.03;;;7.83;100.00
52927;BME280;40783;49.710;8.842;2023-03-26T04:03:18;98252.56;;;7.86;100.00
52927;BME280;40783;49.710;8.842;2023-03-26T04:05:43;98251.41;;;7.89;100.00
52927;BME280;40783;49.710;8.842;2023-03-26T04:08:18;98253.91;;;7.91;100.00
52927;BME280;40783;49.710;8.842;2023-03-26T04:10:44;98247.41;;;7.93;100.00
52927;BME280;40783;49.710;8.842;2023-03-26T04:13:10;98231.09;;;7.96;100.00
52927;BME280;40783;49.710;8.842;2023-03-26T04:15:35;98231.94;;;7.97;100.00
52927;BME280;40783;49.710;8.842;2023-03-26T04:18:01;98223.63;;;7.92;100.00
52927;BME280;40783;49.710;8.842;2023-03-26T04:20:26;98211.31;;;7.91;100.00
52927;BME280;40783;49.710;8.842;2023-03-26T04:22:53;98211.31;;;7.91;100.00
52927;BME280;40783;49.710;8.842;2023-03-26T04:25:19;98200.16;;;7.87;100.00
52927;BME280;40783;49.710;8.842;2023-03-26T04:27:47;98189.69;;;7.85;100.00
52927;BME280;40783;49.710;8.842;2023-03-26T04:30:13;98193.31;;;7.76;100.00
52927;BME280;40783;49.710;8.842;2023-03-26T04:32:46;98182.31;;;7.63;100.00
52927;BME280;40783;49.710;8.842;2023-03-26T04:35:13;98183.63;;;7.58;100.00
52927;BME280;40783;49.710;8.842;2023-03-26T04:37:40;98172.00;;;7.60;100.00
52927;BME280;40783;49.710;8.842;2023-03-26T04:40:08;98174.97;;;7.56;100.00
52927;BME280;40783;49.710;8.842;2023-03-26T04:42:38;98176.94;;;7.46;100.00
52927;BME280;40783;49.710;8.842;2023-03-26T04:45:10;98166.63;;;7.43;100.00
52927;BME280;40783;49.710;8.842;2023-03-26T04:47:35;98157.34;;;7.39;100.00
52927;BME280;40783;49.710;8.842;2023-03-26T04:50:06;98143.69;;;7.42;100.00
52927;BME280;40783;49.710;8.842;2023-03-26T04:52:32;98144.69;;;7.49;100.00
52927;BME280;40783;49.710;8.842;2023-03-26T04:54:58;98147.69;;;7.38;100.00
52927;BME280;40783;49.710;8.842;2023-03-26T04:59:51;98136.03;;;7.47;100.00
52927;BME280;40783;49.710;8.842;2023-03-26T05:02:17;98130.06;;;7.53;100.00
52927;BME280;40783;49.710;8.842;2023-03-26T05:04:47;98118.09;;;7.49;100.00
52927;BME280;40783;49.710;8.842;2023-03-26T05:07:15;98117.75;;;7.52;100.00
52927;BME280;40783;49.710;8.842;2023-03-26T05:09:41;98113.47;;;7.60;100.00
52927;BME280;40783;49.710;8.842;2023-03-26T05:12:06;98111.47;;;7.62;100.00
52927;BME280;40783;49.710;8.842;2023-03-26T05:14:32;98110.31;;;7.64;100.00
52927;BME280;40783;49.710;8.842;2023-03-26T05:16:57;98114.78;;;7.64;100.00
52927;BME280;40783;49.710;8.842;2023-03-26T05:19:22;98098.50;;;7.67;100.00
52927;BME280;40783;49.710;8.842;2023-03-26T05:21:47;98098.50;;;7.67;100.00
52927;BME280;40783;49.710;8.842;2023-03-26T05:24:13;98088.19;;;7.72;100.00
52927;BME280;40783;49.710;8.842;2023-03-26T05:26:38;98079.34;;;7.71;100.00
52927;BME280;40783;49.710;8.842;2023-03-26T05:29:03;98084.53;;;7.73;100.00
52927;BME280;40783;49.710;8.842;2023-03-26T05:31:29;98064.91;;;7.66;100.00
52927;BME280;40783;49.710;8.842;2023-03-26T05:33:55;98070.56;;;7.63;100.00
52927;BME280;40783;49.710;8.842;2023-03-26T05:36:20;98064.56;;;7.61;100.00
52927;BME280;40783;49.710;8.842;2023-03-26T05:38:51;98070.06;;;7.59;100.00
52927;BME280;40783;49.710;8.842;2023-03-26T05:41:16;98073.06;;;7.48;100.00
52927;BME280;40783;49.710;8.842;2023-03-26T05:43:42;98072.41;;;7.54;100.00
52927;BME280;40783;49.710;8.842;2023-03-26T05:46:08;98064.88;;;7.49;100.00
52927;BME280;40783;49.710;8.842;2023-03-26T05:48:34;98057.56;;;7.51;100.00
52927;BME280;40783;49.710;8.842;2023-03-26T05:50:59;98058.25;;;7.53;100.00
52927;BME280;40783;49.710;8.842;2023-03-26T05:53:27;98057.91;;;7.65;100.00
52927;BME280;40783;49.710;8.842;2023-03-26T05:55:52;98045.63;;;7.64;100.00
52927;BME280;40783;49.710;8.842;2023-03-26T05:58:27;98044.63;;;7.56;100.00
52927;BME280;40783;49.710;8.842;2023-03-26T06:00:59;98039.63;;;7.62;100.00
52927;BME280;40783;49.710;8.842;2023-03-26T06:03:27;98033.81;;;7.58;100.00
52927;BME280;40783;49.710;8.842;2023-03-26T06:05:52;98029.31;;;7.67;100.00
52927;BME280;40783;49.710;8.842;2023-03-26T06:08:17;98027.00;;;7.72;100.00
52927;BME280;40783;49.710;8.842;2023-03-26T06:10:43;98022.16;;;7.76;100.00
52927;BME280;40783;49.710;8.842;2023-03-26T06:13:11;98014.16;;;7.84;100.00
52927;BME280;40783;49.710;8.842;2023-03-26T06:15:40;98013.34;;;7.83;100.00
52927;BME280;40783;49.710;8.842;2023-03-26T06:18:05;98007.03;;;7.60;100.00
52927;BME280;40783;49.710;8.842;2023-03-26T06:20:30;98012.03;;;7.63;100.00
52927;BME280;40783;49.710;8.842;2023-03-26T06:22:56;98000.38;;;7.55;100.00
52927;BME280;40783;49.710;8.842;2023-03-26T06:25:21;98002.38;;;7.53;100.00
52927;BME280;40783;49.710;8.842;2023-03-26T06:27:46;97992.06;;;7.50;100.00
52927;BME280;40783;49.710;8.842;2023-03-26T06:30:11;97997.06;;;7.53;100.00
52927;BME280;40783;49.710;8.842;2023-03-26T06:32:36;97993.06;;;7.57;100.00
52927;BME280;40783;49.710;8.842;2023-03-26T06:35:02;97988.41;;;7.68;100.00
52927;BME280;40783;49.710;8.842;2023-03-26T06:37:27;97983.41;;;7.65;100.00
52927;BME280;40783;49.710;8.842;2023-03-26T06:39:52;97981.91;;;7.70;100.00
52927;BME280;40783;49.710;8.842;2023-03-26T06:42:20;97979.91;;;7.72;100.00
52927;BME280;40783;49.710;8.842;2023-03-26T06:44:45;97976.41;;;7.80;100.00
52927;BME280;40783;49.710;8.842;2023-03-26T06:47:12;97972.88;;;7.88;100.00
52927;BME280;40783;49.710;8.842;2023-03-26T06:49:40;97970.03;;;7.98;100.00
52927;BME280;40783;49.710;8.842;2023-03-26T06:52:06;97962.03;;;7.98;100.00
52927;BME280;40783;49.710;8.842;2023-03-26T06:54:33;97963.69;;;7.99;100.00
52927;BME280;40783;49.710;8.842;2023-03-26T06:56:59;97957.34;;;8.08;100.00
52927;BME280;40783;49.710;8.842;2023-03-26T06:59:24;97957.69;;;8.05;100.00
52927;BME280;40783;49.710;8.842;2023-03-26T07:01:49;97959.53;;;8.05;100.00
52927;BME280;40783;49.710;8.842;2023-03-26T07:04:17;97940.06;;;8.04;100.00
52927;BME280;40783;49.710;8.842;2023-03-26T07:06:42;97941.38;;;8.08;100.00
52927;BME280;40783;49.710;8.842;2023-03-26T07:09:10;97928.25;;;8.07;100.00
52927;BME280;40783;49.710;8.842;2023-03-26T07:11:35;97936.06;;;8.08;100.00
52927;BME280;40783;49.710;8.842;2023-03-26T07:14:02;97936.06;;;8.08;100.00
52927;BME280;40783;49.710;8.842;2023-03-26T07:16:27;97935.94;;;8.01;100.00
52927;BME280;40783;49.710;8.842;2023-03-26T07:18:53;97934.94;;;7.94;100.00
52927;BME280;40783;49.710;8.842;2023-03-26T07:21:19;97932.81;;;7.90;100.00
52927;BME280;40783;49.710;8.842;2023-03-26T07:23:45;97934.13;;;7.94;100.00
52927;BME280;40783;49.710;8.842;2023-03-26T07:26:21;97924.09;;;8.04;100.00
52927;BME280;40783;49.710;8.842;2023-03-26T07:28:53;97915.25;;;8.12;100.00
52927;BME280;40783;49.710;8.842;2023-03-26T07:31:26;97908.38;;;8.17;100.00
52927;BME280;40783;49.710;8.842;2023-03-26T07:36:33;97904.56;;;8.20;100.00
52927;BME280;40783;49.710;8.842;2023-03-26T07:44:30;97882.81;;;8.08;100.00
52927;BME280;40783;49.710;8.842;2023-03-26T07:46:59;97877.13;;;8.11;100.00
52927;BME280;40783;49.710;8.842;2023-03-26T07:49:25;97875.13;;;8.13;100.00
52927;BME280;40783;49.710;8.842;2023-03-26T07:51:51;97870.41;;;8.24;100.00
52927;BME280;40783;49.710;8.842;2023-03-26T07:54:16;97868.75;;;8.23;100.00
52927;BME280;40783;49.710;8.842;2023-03-26T07:56:49;97862.38;;;8.32;100.00
52927;BME280;40783;49.710;8.842;2023-03-26T08:01:45;97852.84;;;8.38;100.00
52927;BME280;40783;49.710;8.842;2023-03-26T08:09:55;97838.72;;;8.37;100.00
52927;BME280;40783;49.710;8.842;2023-03-26T08:17:31;97836.13;;;8.52;100.00
52927;BME280;40783;49.710;8.842;2023-03-26T08:22:45;97844.06;;;8.60;100.00
52927;BME280;40783;49.710;8.842;2023-03-26T08:25:32;97843.72;;;8.64;100.00
52927;BME280;40783;49.710;8.842;2023-03-26T08:30:32;97840.91;;;8.57;100.00
52927;BME280;40783;49.710;8.842;2023-03-26T08:33:19;97844.91;;;8.61;100.00
52927;BME280;40783;49.710;8.842;2023-03-26T08:35:46;97861.34;;;8.41;100.00
52927;BME280;40783;49.710;8.842;2023-03-26T08:38:13;97862.72;;;8.29;100.00
52927;BME280;40783;49.710;8.842;2023-03-26T08:40:49;97863.44;;;8.23;100.00
52927;BME280;40783;49.710;8.842;2023-03-26T09:04:04;97879.06;;;7.21;100.00
52927;BME280;40783;49.710;8.842;2023-03-26T09:24:34;97814.78;;;8.06;100.00
52927;BME280;40783;49.710;8.842;2023-03-26T09:32:38;97832.31;;;7.92;100.00
52927;BME280;40783;49.710;8.842;2023-03-26T09:35:19;97821.38;;;7.86;100.00
52927;BME280;40783;49.710;8.842;2023-03-26T09:40:36;97797.44;;;7.78;100.00
52927;BME280;40783;49.710;8.842;2023-03-26T09:51:04;97800.00;;;8.50;100.00
52927;BME280;40783;49.710;8.842;2023-03-26T09:56:12;97793.03;;;8.49;100.00
52927;BME280;40783;49.710;8.842;2023-03-26T10:16:57;97765.06;;;8.44;100.00
52927;BME280;40783;49.710;8.842;2023-03-26T10:35:25;97743.78;;;9.13;100.00
52927;BME280;40783;49.710;8.842;2023-03-26T10:38:12;97743.41;;;9.16;100.00
52927;BME280;40783;49.710;8.842;2023-03-26T10:48:18;97735.78;;;9.43;100.00
52927;BME280;40783;49.710;8.842;2023-03-26T10:53:30;97755.03;;;9.75;100.00
52927;BME280;40783;49.710;8.842;2023-03-26T10:56:22;97734.63;;;10.04;100.00
52927;BME280;40783;49.710;8.842;2023-03-26T10:58:43;97724.06;;;10.17;100.00
52927;BME280;40783;49.710;8.842;2023-03-26T11:01:13;97714.50;;;10.30;100.00
52927;BME280;40783;49.710;8.842;2023-03-26T11:11:09;97698.38;;;9.94;100.00
52927;BME280;40783;49.710;8.842;2023-03-26T11:16:14;97695.44;;;10.54;100.00
52927;BME280;40783;49.710;8.842;2023-03-26T11:18:48;97691.25;;;10.45;100.00
52927;BME280;40783;49.710;8.842;2023-03-26T11:28:43;97708.16;;;9.87;100.00
52927;BME280;40783;49.710;8.842;2023-03-26T11:31:18;97710.31;;;10.20;100.00
52927;BME280;40783;49.710;8.842;2023-03-26T11:33:47;97710.06;;;9.93;100.00
52927;BME280;40783;49.710;8.842;2023-03-26T11:36:16;97707.00;;;10.18;100.00
52927;BME280;40783;49.710;8.842;2023-03-26T11:38:46;97698.34;;;10.38;100.00
52927;BME280;40783;49.710;8.842;2023-03-26T11:41:23;97686.81;;;10.59;100.00
52927;BME280;40783;49.710;8.842;2023-03-26T11:43:53;97693.19;;;10.87;100.00
52927;BME280;40783;49.710;8.842;2023-03-26T11:46:20;97685.44;;;10.70;100.00
52927;BME280;40783;49.710;8.842;2023-03-26T11:48:58;97672.19;;;10.90;100.00
52927;BME280;40783;49.710;8.842;2023-03-26T11:51:35;97685.88;;;11.02;100.00
52927;BME280;40783;49.710;8.842;2023-03-26T11:54:04;97683.25;;;11.16;100.00
52927;BME280;40783;49.710;8.842;2023-03-26T12:06:35;97671.53;;;11.17;100.00
52927;BME280;40783;49.710;8.842;2023-03-26T12:09:00;97672.19;;;10.83;100.00
52927;BME280;40783;49.710;8.842;2023-03-26T12:11:27;97669.63;;;10.68;100.00
52927;BME280;40783;49.710;8.842;2023-03-26T12:13:59;97670.19;;;10.64;100.00
52927;BME280;40783;49.710;8.842;2023-03-26T12:16:29;97691.09;;;10.32;100.00
52927;BME280;40783;49.710;8.842;2023-03-26T12:19:02;97689.72;;;10.14;100.00
52927;BME280;40783;49.710;8.842;2023-03-26T12:21:32;97695.44;;;9.89;100.00
52927;BME280;40783;49.710;8.842;2023-03-26T12:24:28;97689.97;;;9.76;100.00
52927;BME280;40783;49.710;8.842;2023-03-26T12:29:44;97687.06;;;9.92;100.00
52927;BME280;40783;49.710;8.842;2023-03-26T12:32:14;97674.00;;;10.04;100.00
52927;BME280;40783;49.710;8.842;2023-03-26T12:34:39;97664.78;;;10.07;100.00
52927;BME280;40783;49.710;8.842;2023-03-26T12:37:06;97672.03;;;10.13;100.00
52927;BME280;40783;49.710;8.842;2023-03-26T12:42:00;97665.22;;;10.32;100.00
52927;BME280;40783;49.710;8.842;2023-03-26T12:44:30;97655.97;;;10.57;100.00
52927;BME280;40783;49.710;8.842;2023-03-26T12:47:13;97645.91;;;10.94;100.00
52927;BME280;40783;49.710;8.842;2023-03-26T12:49:39;97643.47;;;10.99;100.00
52927;BME280;40783;49.710;8.842;2023-03-26T12:57:26;97642.34;;;10.80;100.00
52927;BME280;40783;49.710;8.842;2023-03-26T13:08:05;97633.47;;;10.79;100.00
52927;BME280;40783;49.710;8.842;2023-03-26T13:13:25;97627.03;;;11.02;100.00
52927;BME280;40783;49.710;8.842;2023-03-26T13:16:02;97628.72;;;11.17;100.00
52927;BME280;40783;49.710;8.842;2023-03-26T13:24:39;97670.13;;;10.86;100.00
52927;BME280;40783;49.710;8.842;2023-03-26T13:29:12;97682.16;;;9.96;100.00
52927;BME280;40783;49.710;8.842;2023-03-26T13:34:17;97669.09;;;9.64;100.00
52927;BME280;40783;49.710;8.842;2023-03-26T13:37:03;97648.75;;;9.42;100.00
52927;BME280;40783;49.710;8.842;2023-03-26T13:42:25;97634.84;;;9.46;100.00
52927;BME280;40783;49.710;8.842;2023-03-26T13:45:04;97637.53;;;9.68;100.00
52927;BME280;40783;49.710;8.842;2023-03-26T13:47:37;97641.19;;;9.89;100.00
52927;BME280;40783;49.710;8.842;2023-03-26T13:50:06;97638.47;;;9.82;100.00
52927;BME280;40783;49.710;8.842;2023-03-26T13:52:55;97629.84;;;10.02;100.00
52927;BME280;40783;49.710;8.842;2023-03-26T13:55:29;97623.19;;;10.19;100.00
52927;BME280;40783;49.710;8.842;2023-03-26T13:58:03;97618.84;;;10.40;100.00
52927;BME280;40783;49.710;8.842;2023-03-26T14:00:44;97611.19;;;10.37;100.00
52927;BME280;40783;49.710;8.842;2023-03-26T14:03:14;97604.94;;;10.51;100.00
52927;BME280;40783;49.710;8.842;2023-03-26T14:05:47;97596.78;;;10.60;100.00
52927;BME280;40783;49.710;8.842;2023-03-26T14:08:34;97604.28;;;10.78;100.00
52927;BME280;40783;49.710;8.842;2023-03-26T14:11:03;97587.56;;;10.69;100.00
52927;BME280;40783;49.710;8.842;2023-03-26T14:13:37;97588.53;;;10.54;100.00
52927;BME280;40783;49.710;8.842;2023-03-26T14:16:52;97585.22;;;10.52;100.00
52927;BME280;40783;49.710;8.842;2023-03-26T14:24:26;97581.19;;;10.70;100.00
52927;BME280;40783;49.710;8.842;2023-03-26T14:32:02;97575.91;;;10.83;95.07
52927;BME280;40783;49.710;8.842;2023-03-26T14:42:33;97552.97;;;11.09;93.11
52927;BME280;40783;49.710;8.842;2023-03-26T14:47:36;97555.03;;;11.21;86.33
52927;BME280;40783;49.710;8.842;2023-03-26T14:52:48;97545.66;;;11.52;86.21
52927;BME280;40783;49.710;8.842;2023-03-26T15:00:33;97557.16;;;11.46;86.03
52927;BME280;40783;49.710;8.842;2023-03-26T15:21:35;97548.88;;;11.27;84.54
52927;BME280;40783;49.710;8.842;2023-03-26T15:27:10;97561.81;;;11.03;83.21
52927;BME280;40783;49.710;8.842;2023-03-26T15:47:34;97587.00;;;10.17;87.81
52927;BME280;40783;49.710;8.842;2023-03-26T15:50:09;97585.69;;;10.06;90.42
52927;BME280;40783;49.710;8.842;2023-03-26T15:55:51;97600.84;;;9.99;93.28
52927;BME280;40783;49.710;8.842;2023-03-26T16:00:36;97615.97;;;9.70;93.64
52927;BME280;40783;49.710;8.842;2023-03-26T16:10:56;97649.72;;;9.56;97.96
52927;BME280;40783;49.710;8.842;2023-03-26T16:18:27;97643.63;;;9.62;97.26
52927;BME280;40783;49.710;8.842;2023-03-26T16:21:42;97652.31;;;9.49;99.17
52927;BME280;40783;49.710;8.842;2023-03-26T16:28:58;97659.41;;;9.42;98.97
52927;BME280;40783;49.710;8.842;2023-03-26T16:31:21;97661.50;;;9.46;100.00
52927;BME280;40783;49.710;8.842;2023-03-26T16:36:15;97690.34;;;9.21;100.00
52927;BME280;40783;49.710;8.842;2023-03-26T16:41:18;97700.09;;;9.14;100.00
52927;BME280;40783;49.710;8.842;2023-03-26T16:43:52;97697.81;;;9.11;100.00
52927;BME280;40783;49.710;8.842;2023-03-26T16:51:29;97691.75;;;9.02;100.00
52927;BME280;40783;49.710;8.842;2023-03-26T16:56:32;97702.88;;;8.90;100.00
52927;BME280;40783;49.710;8.842;2023-03-26T16:59:07;97698.66;;;8.96;100.00
52927;BME280;40783;49.710;8.842;2023-03-26T17:01:34;97688.00;;;8.96;100.00
52927;BME280;40783;49.710;8.842;2023-03-26T17:04:18;97699.38;;;8.90;100.00
52927;BME280;40783;49.710;8.842;2023-03-26T17:14:54;97693.28;;;8.81;100.00
52927;BME280;40783;49.710;8.842;2023-03-26T17:19:55;97705.38;;;8.54;100.00
52927;BME280;40783;49.710;8.842;2023-03-26T17:22:42;97699.34;;;8.60;100.00
52927;BME280;40783;49.710;8.842;2023-03-26T17:25:11;97706.63;;;8.66;100.00
52927;BME280;40783;49.710;8.842;2023-03-26T17:32:58;97710.59;;;8.47;100.00
52927;BME280;40783;49.710;8.842;2023-03-26T17:40:49;97720.91;;;8.27;100.00
52927;BME280;40783;49.710;8.842;2023-03-26T17:46:47;97723.59;;;8.27;100.00
52927;BME280;40783;49.710;8.842;2023-03-26T17:56:52;97716.19;;;8.14;100.00
52927;BME280;40783;49.710;8.842;2023-03-26T17:59:19;97719.63;;;7.99;100.00
52927;BME280;40783;49.710;8.842;2023-03-26T18:01:54;97719.13;;;7.96;100.00
52927;BME280;40783;49.710;8.842;2023-03-26T18:04:25;97720.56;;;7.83;100.00
52927;BME280;40783;49.710;8.842;2023-03-26T18:17:14;97719.44;;;8.01;100.00
52927;BME280;40783;49.710;8.842;2023-03-26T18:19:47;97727.22;;;8.11;100.00
52927;BME280;40783;49.710;8.842;2023-03-26T18:22:16;97728.38;;;8.08;100.00
52927;BME280;40783;49.710;8.842;2023-03-26T18:24:42;97730.28;;;7.99;100.00
52927;BME280;40783;49.710;8.842;2023-03-26T18:27:09;97730.50;;;7.90;100.00
52927;BME280;40783;49.710;8.842;2023-03-26T18:29:35;97732.63;;;7.94;100.00
52927;BME280;40783;49.710;8.842;2023-03-26T18:32:14;97738.91;;;7.78;100.00
52927;BME280;40783;49.710;8.842;2023-03-26T18:34:46;97741.72;;;7.77;100.00
52927;BME280;40783;49.710;8.842;2023-03-26T18:37:21;97736.63;;;7.67;100.00
52927;BME280;40783;49.710;8.842;2023-03-26T18:47:53;97746.22;;;7.76;100.00
52927;BME280;40783;49.710;8.842;2023-03-26T18:50:31;97744.81;;;7.89;100.00
52927;BME280;40783;49.710;8.842;2023-03-26T18:53:00;97742.56;;;7.77;100.00
52927;BME280;40783;49.710;8.842;2023-03-26T18:55:26;97739.72;;;7.79;100.00
52927;BME280;40783;49.710;8.842;2023-03-26T18:57:55;97743.81;;;7.90;100.00
52927;BME280;40783;49.710;8.842;2023-03-26T19:00:20;97736.41;;;8.00;100.00
52927;BME280;40783;49.710;8.842;2023-03-26T19:02:47;97736.25;;;8.01;100.00
52927;BME280;40783;49.710;8.842;2023-03-26T19:05:15;97750.38;;;8.02;100.00
52927;BME280;40783;49.710;8.842;2023-03-26T19:07:41;97733.69;;;8.08;100.00
52927;BME280;40783;49.710;8.842;2023-03-26T19:10:09;97734.41;;;8.02;100.00